createdAt,value
2023-04-03T00:01:59.800Z,44.00
2023-04-03T00:04:27.795Z,44.30
2023-04-03T00:06:55.851Z,44.50
2023-04-03T00:09:24.014Z,44.40
2023-04-03T00:11:52.304Z,44.50
2023-04-03T00:14:20.227Z,44.30
2023-04-03T00:16:48.555Z,43.80
2023-04-03T00:19:16.690Z,44.10
2023-04-03T00:21:45.981Z,44.10
2023-04-03T00:24:13.801Z,44.20
2023-04-03T00:26:41.733Z,44.20
2023-04-03T00:29:09.620Z,44.20
2023-04-03T00:31:39.856Z,43.90
2023-04-03T00:34:07.845Z,44.00
2023-04-03T00:36:36.157Z,44.00
2023-04-03T00:39:05.330Z,44.00
2023-04-03T00:41:33.459Z,44.30
2023-04-03T00:44:01.539Z,44.00
2023-04-03T00:46:29.517Z,44.00
2023-04-03T00:48:57.553Z,44.10
2023-04-03T00:51:25.528Z,44.40
2023-04-03T00:53:53.426Z,44.20
2023-04-03T00:56:22.824Z,44.30
2023-04-03T00:58:50.841Z,44.30
2023-04-03T01:01:18.852Z,44.40
2023-04-03T01:03:46.910Z,44.10
2023-04-03T01:06:15.125Z,44.10
2023-04-03T01:08:43.153Z,44.10
2023-04-03T01:11:11.079Z,44.20
2023-04-03T01:13:39.373Z,45.00
2023-04-03T01:16:07.436Z,44.30
2023-04-03T01:18:35.583Z,44.00
2023-04-03T01:21:03.545Z,44.20
2023-04-03T01:23:31.504Z,44.20
2023-04-03T01:25:59.500Z,44.30
2023-04-03T01:28:27.444Z,44.60
2023-04-03T01:30:55.383Z,44.20
2023-04-03T01:33:23.332Z,44.30
2023-04-03T01:35:51.333Z,44.20
2023-04-03T01:38:19.529Z,44.40
2023-04-03T01:40:47.475Z,44.60
2023-04-03T01:43:15.530Z,44.30
2023-04-03T01:45:43.526Z,44.70
2023-04-03T01:48:11.457Z,44.60
2023-04-03T01:50:39.469Z,44.50
2023-04-03T01:53:07.490Z,44.70
2023-04-03T01:55:35.435Z,44.70
2023-04-03T01:58:03.405Z,44.50
2023-04-03T02:00:31.913Z,44.40
2023-04-03T02:03:00.110Z,44.50
2023-04-03T02:05:28.241Z,44.70
2023-04-03T02:07:58.949Z,44.70
2023-04-03T02:10:26.863Z,45.30
2023-04-03T02:12:54.757Z,44.80
2023-04-03T02:15:22.767Z,44.50
2023-04-03T02:17:50.632Z,44.40
2023-04-03T02:20:18.516Z,44.70
2023-04-03T02:22:46.461Z,44.40
2023-04-03T02:25:14.833Z,44.60
2023-04-03T02:27:42.837Z,44.70
2023-04-03T02:30:12.003Z,44.70
2023-04-03T02:32:40.188Z,44.70
2023-04-03T02:35:08.253Z,44.40
2023-04-03T02:37:36.186Z,44.70
2023-04-03T02:40:04.114Z,44.70
2023-04-03T02:42:32.190Z,44.50
2023-04-03T02:45:01.471Z,44.90
2023-04-03T02:47:29.380Z,44.70
2023-04-03T02:49:57.469Z,44.70
2023-04-03T02:52:25.486Z,45.00
2023-04-03T02:54:53.557Z,44.80
2023-04-03T02:57:22.141Z,44.70
2023-04-03T02:59:50.171Z,44.70
2023-04-03T03:02:18.381Z,44.60
2023-04-03T03:04:46.484Z,44.80
2023-04-03T03:07:14.428Z,44.50
2023-04-03T03:09:42.411Z,44.80
2023-04-03T03:12:10.382Z,44.70
2023-04-03T03:14:38.360Z,44.50
2023-04-03T03:17:06.353Z,44.80
2023-04-03T03:19:34.305Z,44.70
2023-04-03T03:22:06.293Z,44.60
2023-04-03T03:24:34.134Z,45.10
2023-04-03T03:27:01.958Z,45.00
2023-04-03T03:29:29.812Z,45.20
2023-04-03T03:31:57.596Z,44.90
2023-04-03T03:34:25.466Z,45.00
2023-04-03T03:36:53.396Z,45.00
2023-04-03T03:39:21.543Z,44.60
2023-04-03T03:41:50.678Z,45.10
2023-04-03T03:44:18.616Z,45.10
2023-04-03T03:46:46.419Z,44.80
2023-04-03T03:49:14.282Z,45.20
2023-04-03T03:51:42.160Z,45.00
2023-04-03T03:54:10.040Z,45.10
2023-04-03T03:56:37.908Z,44.70
2023-04-03T03:59:05.646Z,44.90
2023-04-03T04:01:33.560Z,45.00
2023-04-03T04:04:01.636Z,45.20
2023-04-03T04:06:29.590Z,45.10
2023-04-03T04:08:57.451Z,45.70
2023-04-03T04:11:25.972Z,45.40
2023-04-03T04:13:53.817Z,45.30
2023-04-03T04:16:21.631Z,45.40
2023-04-03T04:18:49.500Z,45.00
2023-04-03T04:21:17.406Z,45.30
2023-04-03T04:23:45.173Z,45.80
2023-04-03T04:26:13.101Z,45.50
2023-04-03T04:28:40.982Z,45.70
2023-04-03T04:31:09.099Z,46.10
2023-04-03T04:33:36.944Z,45.90
2023-04-03T04:36:04.746Z,45.50
2023-04-03T04:38:32.621Z,45.70
2023-04-03T04:41:00.459Z,45.50
2023-04-03T04:43:28.317Z,45.30
2023-04-03T04:45:56.135Z,45.50
2023-04-03T04:48:23.940Z,45.30
2023-04-03T04:50:51.709Z,45.30
2023-04-03T04:53:19.531Z,45.40
2023-04-03T04:55:47.365Z,45.40
2023-04-03T04:58:15.191Z,45.00
2023-04-03T05:00:43.431Z,45.30
2023-04-03T05:03:11.253Z,45.30
2023-04-03T05:05:39.503Z,45.20
2023-04-03T05:08:09.337Z,45.30
2023-04-03T05:10:37.157Z,45.30
2023-04-03T05:13:05.181Z,45.20
2023-04-03T05:15:32.934Z,45.30
2023-04-03T05:18:00.754Z,45.20
2023-04-03T05:20:28.615Z,45.20
2023-04-03T05:22:56.461Z,45.30
2023-04-03T05:25:24.250Z,45.40
2023-04-03T05:27:54.955Z,45.20
2023-04-03T05:30:22.787Z,45.30
2023-04-03T05:32:50.677Z,44.90
2023-04-03T05:35:18.480Z,45.10
2023-04-03T05:37:46.582Z,45.30
2023-04-03T05:40:15.020Z,45.10
2023-04-03T05:42:43.689Z,45.00
2023-04-03T05:45:11.460Z,44.90
2023-04-03T05:47:39.301Z,44.90
2023-04-03T05:50:07.191Z,44.90
2023-04-03T05:52:34.980Z,44.90
2023-04-03T05:55:02.766Z,44.80
2023-04-03T05:57:30.646Z,44.60
2023-04-03T05:59:58.417Z,44.80
2023-04-03T06:02:27.160Z,44.70
2023-04-03T06:04:55.139Z,44.80
2023-04-03T06:07:23.711Z,44.40
2023-04-03T06:09:52.179Z,44.70
2023-04-03T06:12:20.022Z,44.70
2023-04-03T06:14:47.850Z,44.40
2023-04-03T06:17:16.375Z,44.40
2023-04-03T06:19:44.271Z,44.50
2023-04-03T06:22:12.682Z,44.20
2023-04-03T06:24:40.504Z,44.10
2023-04-03T06:27:08.376Z,44.20
2023-04-03T06:29:36.218Z,44.20
2023-04-03T06:32:04.010Z,43.80
2023-04-03T06:34:32.501Z,43.70
2023-04-03T06:37:00.397Z,43.80
2023-04-03T06:39:28.392Z,43.80
2023-04-03T06:41:56.312Z,43.70
2023-04-03T06:44:24.059Z,43.70
2023-04-03T06:46:52.953Z,43.60
2023-04-03T06:49:20.736Z,43.60
2023-04-03T06:51:48.676Z,43.40
2023-04-03T06:54:16.526Z,43.50
2023-04-03T06:56:44.403Z,43.40
2023-04-03T06:59:12.183Z,43.70
2023-04-03T07:01:40.056Z,43.40
2023-04-03T07:04:08.678Z,43.70
2023-04-03T07:06:36.668Z,43.90
2023-04-03T07:09:04.760Z,43.30
2023-04-03T07:11:32.612Z,43.50
2023-04-03T07:14:00.605Z,43.00
2023-04-03T07:16:28.421Z,43.10
2023-04-03T07:18:56.279Z,43.10
2023-04-03T07:21:24.557Z,42.80
2023-04-03T07:23:52.324Z,43.00
2023-04-03T07:26:21.772Z,42.90
2023-04-03T07:28:49.781Z,42.90
2023-04-03T07:31:17.912Z,42.30
2023-04-03T07:33:46.199Z,42.40
2023-04-03T07:36:14.093Z,43.00
2023-04-03T07:38:42.308Z,42.50
2023-04-03T07:41:10.131Z,42.80
2023-04-03T07:43:37.914Z,42.10
2023-04-03T07:46:05.781Z,43.00
2023-04-03T07:48:33.546Z,43.00
2023-04-03T07:51:01.322Z,42.80
2023-04-03T07:53:29.161Z,42.70
2023-04-03T07:55:58.198Z,42.60
2023-04-03T07:58:26.781Z,42.50
2023-04-03T08:00:54.574Z,42.90
2023-04-03T08:03:22.506Z,42.60
2023-04-03T08:05:50.500Z,42.20
2023-04-03T08:08:20.056Z,43.00
2023-04-03T08:10:49.189Z,43.00
2023-04-03T08:13:16.960Z,42.60
2023-04-03T08:15:44.781Z,43.20
2023-04-03T08:18:12.567Z,43.00
2023-04-03T08:20:40.966Z,42.20
2023-04-03T08:23:08.757Z,42.80
2023-04-03T08:25:37.435Z,42.50
2023-04-03T08:28:05.375Z,42.40
2023-04-03T08:30:33.163Z,42.70
2023-04-03T08:33:01.103Z,42.60
2023-04-03T08:35:28.971Z,43.00
2023-04-03T08:37:57.479Z,42.30
2023-04-03T08:40:25.656Z,42.60
2023-04-03T08:42:53.466Z,43.00
2023-04-03T08:45:21.441Z,42.70
2023-04-03T08:47:49.275Z,42.20
2023-04-03T08:50:17.060Z,42.60
2023-04-03T08:52:45.031Z,42.30
2023-04-03T08:55:12.854Z,42.80
2023-04-03T08:57:40.713Z,42.70
2023-04-03T09:00:08.905Z,42.50
2023-04-03T09:02:36.712Z,42.10
2023-04-03T09:05:04.555Z,42.50
2023-04-03T09:07:32.632Z,42.20
2023-04-03T09:10:02.214Z,42.10
2023-04-03T09:12:31.073Z,42.70
2023-04-03T09:14:59.053Z,42.50
2023-04-03T09:17:28.109Z,41.70
2023-04-03T09:19:55.914Z,42.10
2023-04-03T09:22:24.312Z,42.40
2023-04-03T09:24:52.335Z,42.40
2023-04-03T09:27:20.308Z,41.90
2023-04-03T09:29:48.325Z,42.10
2023-04-03T09:32:16.340Z,41.50
2023-04-03T09:34:44.158Z,42.50
2023-04-03T09:37:11.986Z,41.90
2023-04-03T09:39:40.028Z,41.90
2023-04-03T09:42:08.330Z,42.00
2023-04-03T09:44:36.350Z,41.60
2023-04-03T09:47:04.152Z,41.90
2023-04-03T09:49:32.001Z,41.90
2023-04-03T09:51:59.790Z,41.50
2023-04-03T09:54:28.418Z,40.80
2023-04-03T09:56:56.752Z,41.00
2023-04-03T09:59:24.731Z,41.20
2023-04-03T10:01:52.562Z,41.30
2023-04-03T10:04:20.728Z,41.80
2023-04-03T10:06:48.788Z,41.30
2023-04-03T10:09:16.688Z,40.90
2023-04-03T10:11:44.479Z,40.90
2023-04-03T10:14:12.274Z,40.50
2023-04-03T10:16:40.428Z,41.40
2023-04-03T10:19:09.197Z,41.20
2023-04-03T10:21:37.267Z,41.20
2023-04-03T10:24:05.095Z,40.50
2023-04-03T10:26:32.907Z,41.00
2023-04-03T10:29:00.889Z,40.70
2023-04-03T10:31:28.729Z,40.70
2023-04-03T10:33:56.698Z,40.70
2023-04-03T10:36:24.528Z,40.80
2023-04-03T10:38:53.807Z,40.50
2023-04-03T10:41:21.752Z,41.30
2023-04-03T10:43:49.594Z,41.00
2023-04-03T10:46:18.014Z,41.00
2023-04-03T10:48:45.884Z,40.90
2023-04-03T10:51:13.679Z,41.40
2023-04-03T10:53:41.737Z,40.80
2023-04-03T10:56:09.746Z,40.70
2023-04-03T10:58:37.587Z,40.80
2023-04-03T11:01:05.500Z,40.70
2023-04-03T11:03:33.991Z,40.80
2023-04-03T11:06:01.927Z,40.90
2023-04-03T11:08:29.797Z,40.70
2023-04-03T11:10:57.619Z,40.00
2023-04-03T11:13:26.353Z,40.70
2023-04-03T11:15:54.327Z,40.30
2023-04-03T11:18:22.160Z,39.60
2023-04-03T11:20:50.005Z,40.10
2023-04-03T11:23:17.822Z,40.00
2023-04-03T11:25:46.367Z,40.90
2023-04-03T11:28:14.176Z,40.40
2023-04-03T11:30:41.992Z,40.10
2023-04-03T11:33:09.847Z,40.20
2023-04-03T11:35:38.067Z,39.90
2023-04-03T11:38:06.766Z,40.00
2023-04-03T11:40:34.594Z,39.60
2023-04-03T11:43:02.383Z,40.40
2023-04-03T11:45:30.966Z,40.80
2023-04-03T11:47:59.643Z,40.80
2023-04-03T11:50:28.856Z,39.10
2023-04-03T11:52:56.710Z,40.70
2023-04-03T11:55:24.557Z,41.10
2023-04-03T11:57:52.344Z,40.50
2023-04-03T12:00:20.156Z,39.80
2023-04-03T12:02:54.282Z,39.40
2023-04-03T12:05:23.095Z,40.50
2023-04-03T12:07:50.955Z,40.60
2023-04-03T12:10:30.955Z,39.60
2023-04-03T12:13:00.261Z,40.30
2023-04-03T12:15:28.098Z,40.20
2023-04-03T12:17:56.315Z,39.90
2023-04-03T12:20:24.149Z,39.90
2023-04-03T12:22:51.988Z,39.70
2023-04-03T12:25:19.800Z,40.00
2023-04-03T12:27:48.984Z,40.00
2023-04-03T12:30:16.894Z,39.80
2023-04-03T12:32:44.805Z,39.70
2023-04-03T12:35:13.172Z,39.80
2023-04-03T12:37:41.384Z,40.20
2023-04-03T12:40:09.190Z,39.80
2023-04-03T12:42:37.043Z,39.80
2023-04-03T12:45:04.888Z,39.70
2023-04-03T12:47:34.234Z,39.50
2023-04-03T12:50:02.748Z,39.60
2023-04-03T12:52:30.606Z,39.70
2023-04-03T12:54:58.685Z,40.00
2023-04-03T12:57:26.585Z,39.60
2023-04-03T12:59:54.411Z,40.50
2023-04-03T13:02:22.330Z,39.80
2023-04-03T13:04:50.082Z,39.80
2023-04-03T13:07:17.914Z,39.80
2023-04-03T13:09:45.694Z,39.20
2023-04-03T13:12:13.588Z,40.10
2023-04-03T13:14:42.002Z,39.50
2023-04-03T13:17:09.859Z,40.20
2023-04-03T13:19:37.676Z,40.20
2023-04-03T13:22:05.488Z,40.00
2023-04-03T13:24:33.326Z,40.00
2023-04-03T13:27:01.234Z,39.80
2023-04-03T13:29:31.516Z,40.00
2023-04-03T13:31:59.912Z,39.60
2023-04-03T13:34:28.847Z,39.40
2023-04-03T13:36:56.620Z,39.40
2023-04-03T13:39:24.516Z,39.60
2023-04-03T13:41:52.314Z,38.80
2023-04-03T13:44:20.081Z,39.80
2023-04-03T13:46:47.862Z,39.00
2023-04-03T13:49:15.683Z,34.30
2023-04-03T13:51:43.783Z,31.50
2023-04-03T13:54:11.649Z,30.00
2023-04-03T13:56:39.542Z,30.60
2023-04-03T13:59:07.331Z,30.00
2023-04-03T14:01:35.150Z,29.40
2023-04-03T14:04:03.928Z,30.40
2023-04-03T14:06:31.740Z,29.70
2023-04-03T14:08:59.611Z,28.90
2023-04-03T14:11:28.364Z,30.30
2023-04-03T14:13:56.196Z,29.40
2023-04-03T14:16:24.280Z,29.50
2023-04-03T14:18:52.348Z,28.70
2023-04-03T14:21:20.251Z,27.90
2023-04-03T14:23:48.087Z,27.30
2023-04-03T14:26:17.456Z,29.20
2023-04-03T14:28:45.432Z,29.80
2023-04-03T14:31:13.350Z,28.80
2023-04-03T14:33:41.211Z,27.40
2023-04-03T14:36:09.014Z,27.50
2023-04-03T14:38:36.803Z,27.70
2023-04-03T14:41:13.989Z,26.90
2023-04-03T14:43:44.165Z,27.90
2023-04-03T14:46:12.065Z,27.20
2023-04-03T14:48:39.896Z,27.30
2023-04-03T14:51:07.827Z,27.10
2023-04-03T14:53:39.099Z,26.90
2023-04-03T14:56:07.267Z,26.90
2023-04-03T14:58:37.379Z,26.60
2023-04-03T15:01:05.378Z,26.50
2023-04-03T15:03:33.799Z,28.10
2023-04-03T15:06:01.819Z,28.90
2023-04-03T15:08:30.367Z,27.00
2023-04-03T15:10:58.345Z,36.40
2023-04-03T15:13:26.300Z,36.00
2023-04-03T15:15:54.214Z,38.20
2023-04-03T15:18:22.167Z,38.50
2023-04-03T15:20:49.966Z,38.80
2023-04-03T15:23:17.901Z,38.70
2023-04-03T15:25:45.788Z,38.30
2023-04-03T15:28:13.561Z,38.70
2023-04-03T15:30:43.783Z,38.60
2023-04-03T15:33:11.915Z,39.10
2023-04-03T15:35:40.674Z,39.00
2023-04-03T15:38:11.193Z,39.00
2023-04-03T15:40:39.260Z,38.90
2023-04-03T15:43:09.582Z,38.90
2023-04-03T15:45:38.078Z,38.90
2023-04-03T15:48:06.393Z,39.40
2023-04-03T15:50:37.111Z,30.70
2023-04-03T15:53:05.862Z,30.00
2023-04-03T15:55:33.690Z,29.80
2023-04-03T15:58:02.445Z,28.20
2023-04-03T16:00:30.556Z,28.90
2023-04-03T16:02:58.502Z,29.20
2023-04-03T16:05:26.685Z,28.40
2023-04-03T16:07:54.937Z,28.90
2023-04-03T16:10:26.017Z,28.90
2023-04-03T16:12:53.950Z,28.20
2023-04-03T16:15:21.835Z,26.90
2023-04-03T16:17:52.463Z,26.40
2023-04-03T16:20:22.603Z,27.00
2023-04-03T16:22:50.622Z,26.90
2023-04-03T16:25:21.734Z,27.80
2023-04-03T16:27:49.752Z,26.70
2023-04-03T16:30:18.215Z,27.80
2023-04-03T16:32:46.117Z,28.20
2023-04-03T16:35:15.421Z,28.30
2023-04-03T16:37:43.299Z,29.30
2023-04-03T16:40:11.189Z,28.70
2023-04-03T16:42:39.248Z,27.70
2023-04-03T16:45:07.866Z,28.50
2023-04-03T16:47:36.062Z,30.00
2023-04-03T16:50:03.973Z,30.00
2023-04-03T16:52:32.232Z,27.90
2023-04-03T16:55:00.046Z,34.30
2023-04-03T16:57:28.157Z,35.60
2023-04-03T16:59:56.719Z,36.20
2023-04-03T17:02:26.281Z,36.70
2023-04-03T17:04:54.357Z,36.40
2023-04-03T17:07:22.257Z,36.40
2023-04-03T17:09:54.499Z,36.70
2023-04-03T17:12:22.303Z,36.60
2023-04-03T17:14:50.221Z,36.80
2023-04-03T17:17:18.226Z,36.90
2023-04-03T17:19:46.114Z,37.30
2023-04-03T17:22:14.082Z,37.30
2023-04-03T17:24:41.910Z,37.70
2023-04-03T17:27:09.786Z,37.60
2023-04-03T17:29:37.845Z,35.10
2023-04-03T17:32:05.775Z,30.50
2023-04-03T17:34:34.271Z,30.70
2023-04-03T17:37:02.574Z,30.10
2023-04-03T17:39:30.372Z,31.00
2023-04-03T17:41:58.574Z,30.40
2023-04-03T17:44:27.311Z,30.00
2023-04-03T17:46:55.279Z,29.60
2023-04-03T17:49:23.121Z,30.00
2023-04-03T17:51:51.362Z,29.90
2023-04-03T17:54:19.223Z,29.60
2023-04-03T17:56:48.368Z,29.10
2023-04-03T17:59:16.575Z,29.20
2023-04-03T18:01:46.953Z,29.20
2023-04-03T18:04:14.904Z,29.10
2023-04-03T18:06:43.239Z,29.50
2023-04-03T18:09:11.071Z,29.20
2023-04-03T18:11:39.311Z,29.80
2023-04-03T18:14:07.679Z,30.10
2023-04-03T18:16:38.300Z,27.50
2023-04-03T18:19:22.060Z,28.90
2023-04-03T18:21:51.013Z,29.50
2023-04-03T18:24:19.020Z,29.70
2023-04-03T18:26:47.223Z,29.10
2023-04-03T18:29:16.385Z,30.00
2023-04-03T18:31:44.313Z,27.90
2023-04-03T18:34:13.609Z,28.50
2023-04-03T18:36:41.822Z,28.70
2023-04-03T18:39:10.398Z,28.80
2023-04-03T18:41:38.195Z,33.30
2023-04-03T18:44:06.219Z,35.30
2023-04-03T18:49:05.855Z,36.00
2023-04-03T18:51:33.728Z,36.40
2023-04-03T18:54:03.391Z,36.30
2023-04-03T18:56:31.980Z,36.60
2023-04-03T18:58:59.928Z,36.60
2023-04-03T19:01:27.937Z,36.80
2023-04-03T19:03:55.986Z,36.70
2023-04-03T19:06:24.327Z,36.90
2023-04-03T19:08:52.306Z,37.20
2023-04-03T19:11:20.090Z,37.50
2023-04-03T19:16:20.858Z,37.50
2023-04-03T19:18:49.076Z,37.80
2023-04-03T19:21:16.955Z,38.00
2023-04-03T19:23:44.940Z,37.90
2023-04-03T19:26:12.967Z,38.10
2023-04-03T19:28:41.764Z,38.20
2023-04-03T19:31:09.934Z,38.00
2023-04-03T19:33:37.821Z,38.40
2023-04-03T19:36:05.665Z,38.30
2023-04-03T19:38:33.438Z,38.50
2023-04-03T19:41:01.312Z,38.60
2023-04-03T19:43:29.173Z,38.50
2023-04-03T19:45:57.215Z,38.40
2023-04-03T19:48:24.972Z,38.90
2023-04-03T19:50:52.941Z,38.50
2023-04-03T19:53:22.342Z,39.10
2023-04-03T19:55:50.258Z,38.90
2023-04-03T19:58:18.040Z,38.90
2023-04-03T20:00:45.845Z,39.10
2023-04-03T20:03:13.802Z,38.90
2023-04-03T20:05:41.639Z,38.90
2023-04-03T20:08:09.455Z,39.30
2023-04-03T20:10:40.511Z,39.20
2023-04-03T20:13:10.787Z,39.20
2023-04-03T20:15:40.951Z,39.00
2023-04-03T20:18:08.885Z,39.30
2023-04-03T20:20:41.851Z,39.20
2023-04-03T20:23:10.823Z,39.20
2023-04-03T20:25:50.712Z,39.10
2023-04-03T20:28:25.716Z,39.40
2023-04-03T20:30:55.118Z,39.70
2023-04-03T20:33:23.529Z,38.90
2023-04-03T20:35:51.543Z,39.40
2023-04-03T20:38:19.310Z,39.10
2023-04-03T20:40:47.144Z,39.30
2023-04-03T20:43:15.100Z,39.40
2023-04-03T20:45:42.900Z,39.80
2023-04-03T20:48:11.027Z,39.40
2023-04-03T20:50:39.044Z,39.20
2023-04-03T20:53:07.916Z,39.20
2023-04-03T20:55:35.824Z,39.60
2023-04-03T20:58:03.741Z,39.50
2023-04-03T21:00:32.255Z,39.40
2023-04-03T21:03:01.486Z,39.40
2023-04-03T21:05:30.903Z,39.60
2023-04-03T21:07:58.785Z,40.10
2023-04-03T21:10:28.454Z,39.50
2023-04-03T21:12:56.921Z,39.80
2023-04-03T21:15:24.793Z,39.50
2023-04-03T21:17:52.751Z,39.60
2023-04-03T21:20:20.654Z,39.60
2023-04-03T21:22:49.915Z,39.50
2023-04-03T21:25:17.722Z,39.40
2023-04-03T21:27:45.583Z,39.60
2023-04-03T21:30:13.369Z,39.80
2023-04-03T21:32:41.299Z,39.80
2023-04-03T21:35:09.538Z,39.80
2023-04-03T21:37:37.992Z,40.10
2023-04-03T21:40:05.828Z,39.90
2023-04-03T21:42:33.650Z,39.80
2023-04-03T21:45:01.376Z,39.60
2023-04-03T21:47:29.287Z,39.80
2023-04-03T21:49:57.268Z,39.70
2023-04-03T21:52:25.087Z,40.10
2023-04-03T21:54:53.020Z,39.90
2023-04-03T21:57:22.348Z,40.10
2023-04-03T21:59:50.549Z,40.30
2023-04-03T22:02:18.442Z,40.20
2023-04-03T22:04:47.416Z,40.20
2023-04-03T22:07:15.207Z,40.00
2023-04-03T22:09:43.030Z,40.30
2023-04-03T22:12:11.913Z,40.20
2023-04-03T22:14:40.017Z,40.20
2023-04-03T22:17:08.062Z,40.30
2023-04-03T22:19:35.830Z,40.10
2023-04-03T22:22:04.218Z,40.20
2023-04-03T22:24:32.211Z,40.00
2023-04-03T22:27:00.003Z,40.20
2023-04-03T22:29:28.053Z,40.10
2023-04-03T22:31:56.049Z,40.10
2023-04-03T22:34:24.611Z,40.10
2023-04-03T22:36:53.656Z,40.20
2023-04-03T22:39:22.308Z,40.10
2023-04-03T22:41:50.468Z,40.30
2023-04-03T22:44:18.402Z,40.20
2023-04-03T22:46:46.379Z,40.40
2023-04-03T22:49:14.123Z,40.20
2023-04-03T22:51:42.044Z,40.50
2023-04-03T22:54:10.090Z,40.20
2023-04-03T22:56:38.015Z,40.50
2023-04-03T22:59:05.899Z,40.40
2023-04-03T23:01:33.749Z,40.30
2023-04-03T23:04:01.691Z,40.40
2023-04-03T23:06:29.548Z,40.70
2023-04-03T23:08:57.628Z,40.60
2023-04-03T23:11:25.478Z,40.80
2023-04-03T23:13:53.274Z,40.40
2023-04-03T23:16:21.062Z,40.60
2023-04-03T23:18:50.055Z,40.60
2023-04-03T23:21:17.853Z,40.80
2023-04-03T23:23:45.808Z,40.70
2023-04-03T23:26:13.585Z,40.80
2023-04-03T23:28:41.979Z,40.80
2023-04-03T23:31:10.427Z,40.60
2023-04-03T23:33:38.307Z,40.70
2023-04-03T23:36:06.693Z,40.60
2023-04-03T23:38:34.845Z,40.90
2023-04-03T23:41:02.680Z,40.70
2023-04-03T23:43:31.308Z,40.80
2023-04-03T23:45:59.660Z,40.80
2023-04-03T23:48:27.487Z,41.20
2023-04-03T23:50:55.284Z,41.10
2023-04-03T23:53:23.324Z,40.90
2023-04-03T23:55:51.162Z,41.20
2023-04-03T23:58:18.963Z,40.90
